• Join FlightAware (Why Join?)
  • Login
  • US Flag 
Rudolph Flight #1: Arrived! 
11:56PM EST


 

Airport Tracker/Info


-or-


 

Live Flight TrackerFlight Track Log ✈ N11TK ✈ 26-Jul-2014 ✈ KIER - KHQZ

Flight Track Log - Related Links

Times and Time Zones

All times are in EDT time to prevent confusion due to time zone crossing. See the N11TK flight status page for this flight to view local times or setup timezone preferences in your user account.

Time Position Orientation Groundspeed Altitude Reporting Facility
EDT Latitude Longitude Course Direction KTS MPH feet Rate Location/Type
03:49PM 31.8125 -93.4461 297° West 157 181 8,500  Level Houston Center
03:50PM 31.8183 -93.4597 297° West 157 181 8,800 840 Climbing Houston Center
03:51PM 31.8344 -93.5111 290° West 162 186 9,800 960 Climbing Houston Center
03:52PM 31.8508 -93.5633 290° West 165 190 10,800 960 Climbing Houston Center
03:53PM 31.8750 -93.6136 300° West 171 197 11,800 960 Climbing Houston Center
03:54PM 31.8969 -93.6539 303° West 174 200 12,600 1,020 Climbing Fort Worth Center
03:55PM 31.9325 -93.7203 302° West 207 238 13,700 1,020 Climbing Fort Worth Center
03:56PM 31.9639 -93.7803 302° West 206 237 14,800 960 Climbing Fort Worth Center
03:57PM 31.9861 -93.8403 294° West 202 232 15,800 780 Climbing Fort Worth Center
03:58PM 32.0100 -93.9036 294° West 198 228 16,500 300 Climbing Fort Worth Center
03:59PM 32.0339 -93.9694 293° West 213 245 16,500  Level Fort Worth Center
04:00PM 32.0603 -94.0428 293° West 224 258 16,500  Level Fort Worth Center
04:01PM 32.0850 -94.1097 294° West 224 258 16,500  Level Fort Worth Center
04:02PM 32.1117 -94.1825 293° West 223 257 16,500 -300 Level Fort Worth Center
04:03PM 32.1364 -94.2511 293° West 225 259 16,000 -480 Descending Fort Worth Center
04:04PM 32.1617 -94.3211 293° West 229 264 15,600 -420 Descending Fort Worth Center
04:05PM 32.1850 -94.3864 293° West 233 268 15,200 -420 Descending Fort Worth Center
04:06PM 32.2133 -94.4639 293° West 228 262 14,800 -420 Descending Fort Worth Center
04:07PM 32.2394 -94.5372 293° West 227 261 14,400 -420 Descending Fort Worth Center
04:08PM 32.2644 -94.6053 293° West 227 261 14,000 -420 Descending Fort Worth Center
04:09PM 32.2864 -94.6697 292° West 229 264 13,600 -420 Descending Fort Worth Center
04:10PM 32.3111 -94.7403 293° West 229 264 13,200 -480 Descending Fort Worth Center
04:11PM 32.3419 -94.8256 293° West 234 269 12,700 -480 Descending Fort Worth Center
04:12PM 32.3675 -94.8975 293° West 235 270 12,200 -480 Descending Fort Worth Center
04:13PM 32.3903 -94.9672 291° West 229 264 11,800 -420 Descending Fort Worth Center
04:14PM 32.4167 -95.0333 295° West 230 265 11,400 -420 Descending Fort Worth Center
04:15PM 32.4453 -95.1156 292° West 227 261 11,000 -420 Descending Fort Worth Center
04:16PM 32.4692 -95.1847 292° West 227 261 10,600 -420 Descending Fort Worth Center
04:17PM 32.4953 -95.2592 293° West 228 262 10,200 -480 Descending Fort Worth Center
04:18PM 32.5181 -95.3219 293° West 224 258 9,700 -480 Descending Fort Worth Center
04:20PM 32.5422 -95.3906 293° West 226 260 9,300 -420 Descending Fort Worth Center
04:21PM 32.5653 -95.4572 292° West 220 253 8,900 -420 Descending Fort Worth Center
04:22PM 32.5931 -95.5381 292° West 219 252 8,500 -420 Descending Fort Worth Center
04:23PM 32.6161 -95.6044 292° West 216 249 8,100 -420 Descending Fort Worth Center
04:24PM 32.6428 -95.6744 294° West 216 249 7,700 -420 Descending Fort Worth Center
04:25PM 32.6639 -95.7411 291° West 215 247 7,300 -420 Descending Fort Worth Center
04:26PM 32.6883 -95.8106 293° West 212 244 6,900 -420 Descending Fort Worth Center
04:27PM 32.7106 -95.8758 292° West 212 244 6,500 -420 Descending Fort Worth Center
04:28PM 32.7344 -95.9453 292° West 212 244 6,100 -360 Descending Fort Worth Center
04:29PM 32.7564 -96.0089 292° West 211 243 5,800 -360 Descending Fort Worth Center
04:30PM 32.7803 -96.0789 292° West 211 243 5,400 -420 Descending Fort Worth Center
04:31PM 32.8019 -96.1425 292° West 210 242 5,000 -420 Descending Fort Worth Center
04:32PM 32.8233 -96.2061 292° West 207 238 4,600 -360 Descending Fort Worth Center
04:33PM 32.8461 -96.2700 293° West 197 227 4,300 -360 Descending Fort Worth Center
04:34PM 32.8661 -96.3306 291° West 197 227 3,900 -420 Descending Fort Worth Center
04:35PM 32.8878 -96.3939 292° West 192 221 3,500 -300 Descending Fort Worth Center
04:36PM 32.9069 -96.4511 292° West 187 215 3,300 -300 Descending Fort Worth Center
04:37PM 32.9147 -96.5114 279° West 178 205 2,900 -360 Descending Fort Worth Center
04:38PM 32.8742 -96.5275 198° South 159 183 2,600 -600 Descending Fort Worth Center
04:39PM 32.8261 -96.5283 181° South 161 185 1,700 -720 Descending Fort Worth Center
04:40PM 32.7869 -96.5294 181° South 141 162 1,100 -540 Descending Fort Worth Center
04:41PM 32.7617 -96.5303 182° South 107 123 600 -540 Descending Fort Worth Center
04:43PM 32.7470 -96.5304 199° South  Level Estimated
04:50PM 32.7470 -96.5304 North  Level Estimated